createdAt,value
2022-08-05T03:17:18.226Z,10.07
2022-08-05T03:19:48.466Z,7.35
2022-08-05T03:22:17.913Z,9.60
2022-08-05T03:24:50.787Z,6.93
2022-08-05T03:27:20.113Z,7.55
2022-08-05T03:30:07.644Z,6.10
2022-08-05T03:32:38.845Z,9.75
2022-08-05T03:35:08.983Z,9.02
2022-08-05T03:37:45.683Z,7.35
2022-08-05T03:40:15.266Z,7.55
2022-08-05T03:42:52.914Z,7.30
2022-08-05T03:45:23.375Z,11.32
2022-08-05T03:47:56.870Z,7.95
2022-08-05T03:50:26.772Z,7.40
2022-08-05T03:55:53.362Z,9.38
2022-08-05T03:56:09.687Z,6.43
2022-08-05T03:58:46.953Z,6.22
2022-08-05T04:01:21.003Z,9.00
2022-08-05T04:04:09.400Z,7.45
2022-08-05T04:06:47.472Z,7.38
2022-08-05T04:09:26.050Z,8.13
2022-08-05T04:11:56.496Z,5.90
2022-08-05T04:14:30.622Z,7.80
2022-08-05T04:17:00.814Z,7.68
2022-08-05T04:19:32.348Z,7.40
2022-08-05T04:22:05.888Z,5.90
2022-08-05T04:24:38.780Z,8.90
2022-08-05T04:27:14.184Z,7.18
2022-08-05T04:29:43.669Z,7.93
2022-08-05T04:32:11.980Z,10.48
2022-08-05T04:34:43.330Z,5.43
2022-08-05T04:37:11.972Z,6.35
2022-08-05T04:39:41.067Z,11.15
2022-08-05T04:42:10.041Z,7.85
2022-08-05T04:44:39.202Z,8.80
2022-08-05T04:47:08.914Z,5.90
2022-08-05T04:50:02.487Z,5.80
2022-08-05T04:52:28.492Z,8.60
2022-08-05T04:54:57.175Z,6.82
2022-08-05T04:57:28.571Z,9.82
2022-08-05T04:59:58.431Z,5.15
2022-08-05T05:02:41.172Z,6.80
2022-08-05T05:05:25.995Z,10.75
2022-08-05T05:08:01.699Z,6.95
2022-08-05T05:10:30.803Z,5.30
2022-08-05T05:13:03.688Z,7.25
2022-08-05T05:15:57.694Z,7.32
2022-08-05T05:18:31.264Z,4.88
2022-08-05T05:21:04.254Z,7.07
2022-08-05T05:23:39.119Z,18.20
2022-08-05T05:26:28.460Z,5.72
2022-08-05T05:29:02.408Z,6.43
2022-08-05T05:34:02.543Z,5.13
2022-08-05T05:36:31.717Z,6.25
2022-08-05T05:39:03.645Z,6.95
2022-08-05T05:41:40.874Z,5.13
2022-08-05T05:44:36.045Z,7.43
2022-08-05T05:47:04.457Z,4.32
2022-08-05T05:49:41.193Z,6.82
2022-08-05T05:52:10.037Z,6.40
2022-08-05T05:54:50.773Z,4.78
2022-08-05T05:57:19.941Z,4.65
2022-08-05T05:59:48.930Z,3.47
2022-08-05T06:02:32.720Z,4.72
2022-08-05T06:05:10.625Z,5.40
2022-08-05T06:07:57.854Z,4.15
2022-08-05T06:10:36.421Z,4.85
2022-08-05T06:13:05.945Z,4.03
2022-08-05T06:16:29.447Z,5.30
2022-08-05T06:18:31.148Z,4.80
2022-08-05T06:21:00.486Z,12.20
2022-08-05T06:23:43.690Z,8.15
2022-08-05T06:26:21.242Z,4.57
2022-08-05T06:28:52.079Z,3.22
2022-08-05T06:31:21.911Z,6.45
2022-08-05T06:34:08.062Z,7.78
2022-08-05T06:36:37.357Z,5.07
2022-08-05T06:39:27.602Z,4.55
2022-08-05T06:41:59.300Z,7.03
2022-08-05T06:44:27.803Z,5.05
2022-08-05T06:46:56.263Z,3.97
2022-08-05T06:50:01.744Z,5.10
2022-08-05T06:52:37.276Z,4.60
2022-08-05T06:55:00.981Z,3.75
2022-08-05T06:58:02.900Z,3.58
2022-08-05T07:00:22.132Z,5.90
2022-08-05T07:02:53.655Z,5.10
2022-08-05T07:05:37.387Z,5.18
2022-08-05T07:08:10.839Z,3.42
2022-08-05T07:10:53.034Z,7.65
2022-08-05T07:13:57.932Z,6.05
2022-08-05T07:17:58.199Z,6.20
2022-08-05T07:22:28.291Z,3.88
2022-08-05T07:25:23.337Z,9.57
2022-08-05T07:27:57.970Z,7.72
2022-08-05T07:30:33.617Z,4.07
2022-08-05T07:33:09.005Z,6.55
2022-08-05T07:36:01.624Z,3.70
2022-08-05T07:38:33.580Z,4.60
2022-08-05T07:42:07.128Z,5.07
2022-08-05T07:43:57.178Z,3.45
2022-08-05T07:46:29.346Z,3.65
2022-08-05T07:49:05.544Z,5.20
2022-08-05T07:51:40.687Z,3.63
2022-08-05T07:54:18.841Z,4.20
2022-08-05T07:57:02.320Z,5.55
2022-08-05T07:59:39.761Z,6.82
2022-08-05T08:02:16.483Z,3.40
2022-08-05T08:04:49.611Z,3.28
2022-08-05T08:07:22.771Z,6.63
2022-08-05T08:09:55.041Z,4.45
2022-08-05T08:12:37.319Z,5.03
2022-08-05T08:15:15.178Z,4.13
2022-08-05T08:17:52.813Z,3.47
2022-08-05T08:21:00.205Z,4.85
2022-08-05T08:24:00.338Z,4.30
2022-08-05T08:26:00.417Z,8.13
2022-08-05T08:28:36.926Z,3.47
2022-08-05T08:31:15.058Z,8.57
2022-08-05T08:33:51.728Z,5.55
2022-08-05T08:36:29.470Z,5.43
2022-08-05T08:39:15.452Z,4.75
2022-08-05T08:41:52.115Z,4.97
2022-08-05T08:45:17.684Z,6.20
2022-08-05T08:48:06.847Z,4.25
2022-08-05T08:51:03.524Z,4.85
2022-08-05T08:53:07.955Z,8.25
2022-08-05T08:56:05.105Z,5.93
2022-08-05T08:58:26.169Z,3.78
2022-08-05T09:01:11.066Z,6.93
2022-08-05T09:03:46.485Z,3.00
2022-08-05T09:06:21.339Z,3.47
2022-08-05T09:08:57.136Z,3.60
2022-08-05T09:11:51.580Z,4.15
2022-08-05T09:14:58.376Z,9.38
2022-08-05T09:17:08.260Z,7.80
2022-08-05T09:19:55.394Z,3.50
2022-08-05T09:22:31.734Z,9.07
2022-08-05T09:25:02.201Z,4.15
2022-08-05T09:28:04.024Z,4.50
2022-08-05T09:30:35.675Z,5.72
2022-08-05T09:33:07.381Z,4.53
2022-08-05T09:35:36.088Z,3.38
2022-08-05T09:38:12.632Z,5.15
2022-08-05T09:40:52.651Z,4.78
2022-08-05T09:43:40.738Z,5.30
2022-08-05T09:46:27.582Z,3.55
2022-08-05T09:49:07.576Z,6.93
2022-08-05T09:51:49.731Z,6.03
2022-08-05T09:54:31.684Z,4.18
2022-08-05T09:57:01.713Z,3.53
2022-08-05T09:59:34.830Z,5.15
2022-08-05T10:02:05.172Z,7.03
2022-08-05T10:04:38.426Z,7.15
2022-08-05T10:07:21.034Z,3.80
2022-08-05T10:10:15.265Z,3.95
2022-08-05T10:12:50.024Z,3.72
2022-08-05T10:15:26.856Z,5.90
2022-08-05T10:18:13.963Z,6.45
2022-08-05T10:20:44.606Z,4.22
2022-08-05T10:23:34.140Z,9.10
2022-08-05T10:26:14.261Z,5.10
2022-08-05T10:28:45.011Z,6.05
2022-08-05T10:32:48.002Z,5.30
2022-08-05T10:34:03.509Z,5.95
2022-08-05T10:36:32.195Z,11.00
2022-08-05T10:39:10.333Z,4.63
2022-08-05T10:41:50.724Z,4.00
2022-08-05T10:44:21.622Z,4.97
2022-08-05T10:46:53.958Z,4.53
2022-08-05T10:49:27.388Z,8.45
2022-08-05T10:52:03.406Z,4.07
2022-08-05T10:54:56.327Z,4.15
2022-08-05T10:57:32.050Z,5.72
2022-08-05T11:00:18.710Z,5.32
2022-08-05T11:03:22.963Z,6.63
2022-08-05T11:06:17.615Z,5.63
2022-08-05T11:09:16.710Z,4.55
2022-08-05T11:11:53.639Z,5.93
2022-08-05T11:14:57.382Z,5.50
2022-08-05T11:18:00.250Z,4.10
2022-08-05T11:20:41.561Z,4.50
2022-08-05T11:24:02.712Z,4.03
2022-08-05T11:26:32.123Z,6.85
2022-08-05T11:29:14.002Z,4.85
2022-08-05T11:31:58.536Z,6.43
2022-08-05T11:34:51.372Z,5.68
2022-08-05T11:38:28.420Z,9.15
2022-08-05T11:41:34.702Z,5.00
2022-08-05T11:44:06.251Z,12.05
2022-08-05T11:46:37.879Z,5.90
2022-08-05T11:49:27.661Z,6.10
2022-08-05T11:51:57.440Z,6.13
2022-08-05T11:54:33.860Z,7.32
2022-08-05T11:57:08.447Z,4.72
2022-08-05T11:59:53.205Z,5.05
2022-08-05T12:02:31.589Z,6.32
2022-08-05T12:05:07.101Z,7.97
2022-08-05T12:08:07.527Z,5.22
2022-08-05T12:10:43.160Z,9.48
2022-08-05T12:13:18.891Z,6.32
2022-08-05T12:16:14.723Z,8.75
2022-08-05T12:18:49.349Z,5.45
2022-08-05T12:21:24.726Z,5.20
2022-08-05T12:24:00.099Z,5.68
2022-08-05T12:26:32.830Z,8.43
2022-08-05T12:29:01.550Z,4.18
2022-08-05T12:31:41.516Z,7.85
2022-08-05T12:34:21.577Z,5.70
2022-08-05T12:36:54.411Z,4.32
2022-08-05T12:39:28.168Z,7.00
2022-08-05T12:42:14.717Z,5.18
2022-08-05T12:44:44.675Z,4.93
2022-08-05T12:47:13.682Z,4.80
2022-08-05T12:50:03.937Z,4.00
2022-08-05T12:52:38.754Z,5.35
2022-08-05T12:55:22.019Z,5.55
2022-08-05T12:58:38.218Z,7.00
2022-08-05T13:02:02.673Z,5.90
2022-08-05T13:03:34.179Z,6.15
2022-08-05T13:06:11.695Z,6.28
2022-08-05T13:08:41.457Z,8.05
2022-08-05T13:11:59.813Z,7.45
2022-08-05T13:14:16.109Z,7.50
2022-08-05T13:16:54.845Z,5.95
2022-08-05T13:19:27.429Z,6.00
2022-08-05T13:22:28.380Z,5.15
2022-08-05T13:25:05.732Z,4.70
2022-08-05T13:27:39.110Z,5.53
2022-08-05T13:30:34.475Z,8.20
2022-08-05T13:33:01.530Z,5.03
2022-08-05T13:35:42.620Z,6.13
2022-08-05T13:38:20.419Z,5.20
2022-08-05T13:41:01.271Z,8.73
2022-08-05T13:43:44.219Z,8.98
2022-08-05T13:46:35.709Z,5.53
2022-08-05T13:49:10.477Z,4.82
2022-08-05T13:51:46.438Z,9.45
2022-08-05T13:54:17.011Z,4.80
2022-08-05T13:56:51.511Z,5.55
2022-08-05T13:59:24.451Z,6.07
2022-08-05T14:01:57.406Z,5.30
2022-08-05T14:04:49.782Z,5.03
2022-08-05T14:07:26.113Z,5.68
2022-08-05T14:10:10.546Z,9.43
2022-08-05T14:12:42.984Z,5.28
2022-08-05T14:16:07.118Z,6.43
2022-08-05T14:18:05.857Z,5.85
2022-08-05T14:20:47.149Z,6.20
2022-08-05T14:23:24.816Z,6.88
2022-08-05T14:25:58.109Z,7.30
2022-08-05T14:28:29.687Z,6.28
2022-08-05T14:30:58.271Z,8.00
2022-08-05T14:33:26.483Z,5.68
2022-08-05T14:35:54.960Z,13.02
2022-08-05T14:38:27.677Z,5.25
2022-08-05T14:41:01.508Z,7.95
2022-08-05T14:43:57.733Z,9.85
2022-08-05T14:46:29.162Z,6.20
2022-08-05T14:49:06.794Z,5.97
2022-08-05T14:51:36.222Z,9.85
2022-08-05T14:54:27.746Z,5.85
2022-08-05T14:56:54.884Z,8.20
2022-08-05T14:59:24.592Z,9.18
2022-08-05T15:01:53.816Z,5.95
2022-08-05T15:04:22.729Z,7.18
2022-08-05T15:06:51.605Z,5.82
2022-08-05T15:09:52.826Z,6.30
2022-08-05T15:12:11.455Z,6.38
2022-08-05T15:14:50.312Z,10.70
2022-08-05T15:17:46.436Z,6.05
2022-08-05T15:20:18.944Z,7.65
2022-08-05T15:22:52.292Z,11.68
2022-08-05T15:25:41.164Z,5.55
2022-08-05T15:28:14.390Z,10.05
2022-08-05T15:30:45.807Z,13.43
2022-08-05T15:33:56.600Z,9.30
2022-08-05T15:36:05.649Z,7.05
2022-08-05T15:38:42.100Z,8.60
2022-08-05T15:41:23.306Z,6.63
2022-08-05T15:43:54.543Z,12.20
2022-08-05T15:46:25.286Z,6.65
2022-08-05T15:49:00.740Z,9.45
2022-08-05T15:52:12.556Z,8.10
2022-08-05T15:54:34.920Z,7.43
2022-08-05T15:57:07.312Z,7.97
2022-08-05T15:59:36.503Z,9.05
2022-08-05T16:02:09.647Z,7.40
2022-08-05T16:04:43.480Z,11.05
2022-08-05T16:07:12.359Z,8.27
2022-08-05T16:09:42.055Z,7.25
2022-08-05T16:12:12.089Z,8.15
2022-08-05T16:14:40.529Z,9.27
2022-08-05T16:17:10.070Z,7.75
2022-08-05T16:20:05.607Z,9.45
2022-08-05T16:22:27.731Z,10.65
2022-08-05T16:25:05.251Z,6.53
2022-08-05T16:27:59.764Z,9.52
2022-08-05T16:30:29.102Z,6.20
2022-08-05T16:32:59.175Z,7.00
2022-08-05T16:35:32.086Z,6.35
2022-08-05T16:38:24.420Z,8.13
2022-08-05T16:40:55.160Z,7.10
2022-08-05T16:43:30.338Z,10.20
2022-08-05T16:46:05.303Z,11.27
2022-08-05T16:48:39.332Z,9.48
2022-08-05T16:51:09.041Z,6.22
2022-08-05T16:54:06.329Z,7.93
2022-08-05T16:56:29.459Z,7.47
2022-08-05T16:58:58.092Z,9.30
2022-08-05T17:01:26.418Z,8.35
2022-08-05T17:03:56.040Z,7.68
2022-08-05T17:06:24.909Z,7.30
2022-08-05T17:08:54.325Z,8.93
2022-08-05T17:11:25.368Z,6.40
2022-08-05T17:14:05.896Z,8.52
2022-08-05T17:16:35.912Z,8.57
2022-08-05T17:19:07.147Z,10.73
2022-08-05T17:21:39.700Z,12.90
2022-08-05T17:24:28.008Z,8.88
2022-08-05T17:26:58.776Z,7.55
2022-08-05T17:29:33.072Z,6.70
2022-08-05T17:32:11.367Z,8.23
2022-08-05T17:34:47.598Z,9.48
2022-08-05T17:37:40.066Z,6.70
2022-08-05T17:40:10.356Z,9.65
2022-08-05T17:42:42.841Z,9.38
2022-08-05T17:45:25.028Z,8.98
2022-08-05T17:47:57.837Z,10.05
2022-08-05T17:50:30.733Z,10.73
2022-08-05T17:53:08.452Z,9.85
2022-08-05T17:55:37.618Z,11.00
2022-08-05T17:58:09.744Z,9.70
2022-08-05T18:00:44.547Z,9.65
2022-08-05T18:03:28.028Z,8.10
2022-08-05T18:06:12.356Z,8.75
2022-08-05T18:08:44.448Z,11.02
2022-08-05T18:11:24.711Z,15.85
2022-08-05T18:13:59.650Z,9.82
2022-08-05T18:16:28.228Z,10.18
2022-08-05T18:18:57.286Z,10.77
2022-08-05T18:21:28.120Z,8.50
2022-08-05T18:24:15.107Z,12.50
2022-08-05T18:26:43.754Z,8.93
2022-08-05T18:29:12.323Z,13.55
2022-08-05T18:31:45.173Z,10.82
2022-08-05T18:34:13.699Z,9.90
2022-08-05T18:36:44.550Z,7.85
2022-08-05T18:39:22.286Z,9.45
2022-08-05T18:42:04.922Z,9.07
2022-08-05T18:44:49.336Z,9.57
2022-08-05T18:47:26.653Z,9.18
2022-08-05T18:50:15.734Z,9.13
2022-08-05T18:52:51.127Z,17.55
2022-08-05T18:55:21.651Z,11.70
2022-08-05T18:57:53.913Z,9.50
2022-08-05T19:00:28.704Z,8.93
2022-08-05T19:03:04.250Z,10.15
2022-08-05T19:06:13.218Z,11.40
2022-08-05T19:08:30.633Z,9.65
2022-08-05T19:11:04.529Z,8.77
2022-08-05T19:13:38.728Z,8.50
2022-08-05T19:16:25.466Z,10.00
2022-08-05T19:18:56.616Z,10.57
2022-08-05T19:21:34.282Z,9.32
2022-08-05T19:24:12.287Z,10.48
2022-08-05T19:26:54.459Z,9.45
2022-08-05T19:29:35.502Z,9.32
2022-08-05T19:32:05.593Z,8.85
2022-08-05T19:34:37.235Z,13.23
2022-08-05T19:37:06.784Z,9.05
2022-08-05T19:39:45.608Z,9.32
2022-08-05T19:42:35.066Z,10.25
2022-08-05T19:45:06.467Z,10.23
2022-08-05T19:47:37.671Z,11.82
2022-08-05T19:50:07.781Z,11.20
2022-08-05T19:52:39.067Z,13.27
2022-08-05T19:56:15.228Z,11.15
2022-08-05T19:58:19.592Z,9.80
2022-08-05T20:00:46.885Z,8.52
2022-08-05T20:03:15.292Z,10.98
2022-08-05T20:05:51.159Z,10.27
2022-08-05T20:08:19.986Z,10.60
2022-08-05T20:10:49.986Z,14.07
2022-08-05T20:13:30.162Z,10.77
2022-08-05T20:16:07.889Z,11.43
2022-08-05T20:18:40.571Z,11.55
2022-08-05T20:21:09.463Z,11.15
2022-08-05T20:23:51.354Z,9.63
2022-08-05T20:26:25.480Z,15.77
2022-08-05T20:28:56.907Z,15.25
2022-08-05T20:31:43.855Z,12.43
2022-08-05T20:34:17.312Z,12.10
2022-08-05T20:36:45.589Z,19.65
2022-08-05T20:39:16.363Z,13.43
2022-08-05T20:41:48.226Z,10.50
2022-08-05T20:44:30.475Z,13.65
2022-08-05T20:47:00.480Z,10.52
2022-08-05T20:49:29.104Z,11.15
2022-08-05T20:51:58.475Z,12.57
2022-08-05T20:54:43.142Z,11.30
2022-08-05T20:57:24.905Z,14.15
2022-08-05T21:00:19.756Z,13.38
2022-08-05T21:03:01.104Z,15.13
2022-08-05T21:05:47.467Z,12.00
2022-08-05T21:08:17.767Z,13.02
2022-08-05T21:10:49.207Z,13.15
2022-08-05T21:13:26.106Z,14.13
2022-08-05T21:16:07.564Z,12.00
2022-08-05T21:18:35.925Z,13.82
2022-08-05T21:21:04.100Z,10.73
2022-08-05T21:23:37.291Z,12.75
2022-08-05T21:26:12.320Z,12.35
2022-08-05T21:28:50.603Z,11.48
2022-08-05T21:31:19.361Z,11.10
2022-08-05T21:33:49.573Z,12.15
2022-08-05T21:36:27.593Z,12.73
2022-08-05T21:38:58.527Z,14.52
2022-08-05T21:41:33.101Z,9.82
2022-08-05T21:44:05.023Z,15.48
2022-08-05T21:46:34.657Z,13.50
2022-08-05T21:49:07.103Z,14.57
2022-08-05T21:52:21.421Z,11.07
2022-08-05T21:54:27.687Z,13.15
2022-08-05T21:57:15.480Z,11.30
2022-08-05T22:00:03.292Z,10.40
2022-08-05T22:02:41.566Z,15.73
2022-08-05T22:05:11.192Z,11.90
2022-08-05T22:07:59.457Z,13.75
2022-08-05T22:10:28.065Z,13.57
2022-08-05T22:12:57.234Z,14.23
2022-08-05T22:16:00.918Z,11.68
2022-08-05T22:18:15.703Z,13.65
2022-08-05T22:20:47.878Z,14.00
2022-08-05T22:24:00.875Z,15.23
2022-08-05T22:26:49.727Z,13.45
2022-08-05T22:29:26.603Z,13.32
2022-08-05T22:32:03.240Z,13.70
2022-08-05T22:34:32.505Z,12.10
2022-08-05T22:37:03.882Z,13.73
2022-08-05T22:39:34.674Z,17.27
2022-08-05T22:42:10.076Z,14.27
2022-08-05T22:44:42.693Z,14.52
2022-08-05T22:47:28.626Z,14.75
2022-08-05T22:50:19.931Z,16.15
2022-08-05T22:52:48.604Z,12.60
2022-08-05T22:55:19.347Z,16.58
2022-08-05T22:57:48.928Z,14.25
2022-08-05T23:00:20.938Z,16.35
2022-08-05T23:02:52.220Z,14.00
2022-08-05T23:05:21.982Z,13.95
2022-08-05T23:07:50.904Z,13.48
2022-08-05T23:10:20.842Z,13.65
